Terminal Aerodrome Forecast
Issued by NWS

Home | Current Version | Previous Version | Text Only | Print | Product List | Glossary On
Versions: 1 2 3 4 5 6 7 8 9 10 11 12 13 14 15 16
000
FTUS42 KMLB 280500
TAFTIX
TAF
KTIX 280528Z 2806/2906 33010KT P6SM SKC
     FM281800 01013KT P6SM FEW035
     FM290000 01006KT P6SM SKC
      AMD NOT SKED 2806/2812=

USA.gov is the U.S. government's official web portal to all federal, state and local government web resources and services.